createdAt,value
2016-06-22T05:37:49.100Z,74.69
2016-06-22T05:38:48.875Z,74.69
2016-06-22T05:39:48.694Z,74.34
2016-06-22T05:40:49.938Z,74.54
2016-06-22T05:41:48.769Z,74.05
2016-06-22T05:42:48.760Z,74.54
2016-06-22T05:43:49.881Z,74.05
2016-06-22T05:44:48.954Z,74.25
2016-06-22T05:45:49.702Z,73.96
2016-06-22T05:46:49.594Z,74.82
2016-06-22T05:47:49.401Z,73.28
2016-06-22T05:48:50.035Z,73.67
2016-06-22T05:49:49.730Z,73.47
2016-06-22T05:50:48.951Z,73.77
2016-06-22T05:52:49.583Z,73.96
2016-06-22T05:53:49.618Z,73.57
2016-06-22T05:54:49.782Z,73.47
2016-06-22T05:55:49.112Z,73.03
2016-06-22T05:56:49.824Z,73.22
2016-06-22T05:57:50.119Z,73.42
2016-06-22T05:59:03.854Z,74.19
2016-06-22T05:59:49.929Z,73.8
2016-06-22T06:00:48.982Z,73.8
2016-06-22T06:01:49.018Z,73.32
2016-06-22T06:02:49.842Z,73.42
2016-06-22T06:03:49.039Z,73.42
2016-06-22T06:04:49.490Z,73.16
2016-06-22T06:05:49.645Z,72.39
2016-06-22T06:06:49.866Z,72.39
2016-06-22T06:07:49.821Z,72.49
2016-06-22T06:08:49.421Z,72.59
2016-06-22T06:09:49.155Z,72.53
2016-06-22T06:10:49.031Z,72.81
2016-06-22T06:11:49.155Z,72.53
2016-06-22T06:12:50.046Z,72.33
2016-06-22T06:14:49.999Z,70.89
2016-06-22T06:15:49.815Z,71.22
2016-06-22T06:16:49.795Z,71.22
2016-06-22T06:17:50.483Z,70.83
2016-06-22T06:19:04.152Z,71.22
2016-06-22T06:19:49.974Z,70.64
2016-06-22T06:20:49.344Z,70.54
2016-06-22T06:21:50.187Z,70.83
2016-06-22T06:22:49.976Z,71.12
2016-06-22T06:24:04.135Z,71.12
2016-06-22T06:24:49.535Z,71.6
2016-06-22T06:25:50.174Z,71.22
2016-06-22T06:26:50.370Z,71.22
2016-06-22T06:27:50.532Z,71.5
2016-06-22T06:28:49.496Z,71.12
2016-06-22T06:30:49.598Z,71.7
2016-06-22T06:31:50.042Z,71.7
2016-06-22T06:32:50.018Z,71.89
2016-06-22T06:33:50.209Z,71.89
2016-06-22T06:35:04.213Z,71.89
2016-06-22T06:35:50.443Z,71.73
2016-06-22T06:36:50.475Z,71.54
2016-06-22T06:38:05.061Z,72.02
2016-06-22T06:38:50.198Z,71.25
2016-06-22T06:39:50.276Z,71.25
2016-06-22T06:40:50.253Z,70.57
2016-06-22T06:41:49.553Z,71.15
2016-06-22T06:42:49.405Z,71.34
2016-06-22T06:43:50.293Z,71.06
2016-06-22T06:44:51.043Z,71.06
2016-06-22T06:45:50.494Z,71.15
2016-06-22T06:47:04.418Z,70.09
2016-06-22T06:47:50.101Z,70.28
2016-06-22T06:48:50.622Z,70.7
2016-06-22T06:50:50.893Z,70.61
2016-06-22T06:51:50.626Z,70.61
2016-06-22T06:52:49.732Z,70.8
2016-06-22T06:53:50.128Z,70.22
2016-06-22T06:54:50.700Z,70.51
2016-06-22T06:56:04.435Z,70.42
2016-06-22T06:56:50.100Z,70.42
2016-06-22T06:57:51.098Z,70.42
2016-06-22T06:58:49.676Z,70.42
2016-06-22T06:59:49.722Z,70.51
2016-06-22T07:00:49.622Z,69.84
2016-06-22T07:01:49.789Z,70.16
2016-06-22T07:02:50.581Z,71.22
2016-06-22T07:03:50.753Z,70.16
2016-06-22T07:04:50.770Z,69.97
2016-06-22T07:05:50.439Z,70.06
2016-06-22T07:06:50.523Z,69.49
2016-06-22T07:07:49.794Z,69.71
2016-06-22T07:08:50.291Z,69.52
2016-06-22T07:09:50.534Z,69.04
2016-06-22T07:10:50.701Z,69.52
2016-06-22T07:11:50.437Z,69.23
2016-06-22T07:13:05.497Z,68.55
2016-06-22T07:13:50.761Z,68.65
2016-06-22T07:15:04.984Z,67.91
2016-06-22T07:15:49.947Z,67.91
2016-06-22T07:16:49.836Z,68.2
2016-06-22T07:17:49.877Z,67.72
2016-06-22T07:18:50.514Z,67.52
2016-06-22T07:19:51.128Z,68.2
2016-06-22T07:20:49.904Z,67.33
2016-06-22T07:22:50.973Z,67.33
2016-06-22T07:23:50.777Z,67.33
2016-06-22T07:24:50.095Z,67.62
2016-06-22T07:25:50.000Z,66.94
2016-06-22T07:26:50.386Z,67.43
2016-06-22T07:27:50.474Z,67.52
2016-06-22T07:29:05.075Z,67.04
2016-06-22T07:30:04.979Z,67.33
2016-06-22T07:30:50.669Z,67.17
2016-06-22T07:32:04.928Z,66.08
2016-06-22T07:32:51.352Z,66.94
